TAF and METAR

METAR for Magnitogorsk Airport

USCM 290430Z 35002MPS 9999 SCT040 10/06 Q1035 R36/090060 TEMPO 2000 BR RMK QFE737
Report created 29. sep 06:30
wind 4 knots from N (350°) visibility > 10km scattered clouds (~50% cover) at 4000 feet Temperature 10° with dewpoint at 6° (Humidity 76.18%) Pressure 1035 hPa less than 1mm of clear and dry is covering 51% - 100% of runway 36 and friction coefficient is 0.6

TAF for Magnitogorsk Airport

TAF USCM 290200Z 2903/2912 01003G08MPS 9999 NSC
Report created 29. sep 04:00

between 29. sep 05:00 - 29. sep 14:00

wind 6 knots from N (010°) with gusts up to 16 knots visibility > 10km No significant clouds.
Magnitogorsk Airport in Russian Federation at 435m

Latest 5 airports